Time;durP1;ratioP1;P1;durP2;ratioP2;P2;SDS_P1;SDS_P2;PMS_P1;PMS_P2;Temp;Humidity;BMP_temperature;BMP_pressure;BME280_temperature;BME280_humidity;BME280_pressure;Samples;Min_cycle;Max_cycle;Signal;HPM_P1;HPM_P2
2023/05/21 00:02:10;;;;;;;12.27;9.80;;;14.30;99.90;;;;;;5129604;27;20413;-68
2023/05/21 00:04:40;;;;;;;14.40;10.00;;;14.30;99.90;;;;;;5129160;27;20423;-67
2023/05/21 00:07:09;;;;;;;14.50;10.20;;;14.40;99.90;;;;;;5129192;27;20910;-68
2023/05/21 00:09:37;;;;;;;13.07;10.40;;;14.40;99.90;;;;;;5129171;27;20419;-67
2023/05/21 00:12:04;;;;;;;13.00;10.50;;;14.40;99.90;;;;;;5110371;28;20851;-67
2023/05/21 00:14:30;;;;;;;15.27;10.27;;;14.40;99.90;;;;;;5129268;28;20457;-68
2023/05/21 00:16:55;;;;;;;12.20;10.30;;;14.50;99.90;;;;;;5129014;27;20465;-68
2023/05/21 00:19:21;;;;;;;14.53;10.70;;;14.40;99.90;;;;;;5129005;27;20721;-68
2023/05/21 00:21:46;;;;;;;11.20;9.57;;;14.40;99.90;;;;;;5129018;28;20206;-68
2023/05/21 00:24:12;;;;;;;11.03;9.80;;;14.40;99.90;;;;;;5129174;27;20207;-68
2023/05/21 00:26:38;;;;;;;15.23;10.00;;;14.40;99.90;;;;;;5129021;27;20621;-68
2023/05/21 00:29:03;;;;;;;18.53;10.40;;;14.50;99.90;;;;;;5129193;28;20181;-68
2023/05/21 00:31:29;;;;;;;12.73;11.10;;;14.40;99.90;;;;;;5129267;28;20692;-67
2023/05/21 00:33:55;;;;;;;12.50;10.47;;;14.40;99.90;;;;;;5110482;28;20189;-68
2023/05/21 00:36:22;;;;;;;12.80;10.20;;;14.40;99.90;;;;;;5110192;28;20220;-68
2023/05/21 00:38:49;;;;;;;10.77;9.63;;;14.40;99.90;;;;;;5128819;28;20594;-67
2023/05/21 00:41:15;;;;;;;13.80;10.67;;;14.30;99.90;;;;;;5128763;28;20428;-68
2023/05/21 00:43:43;;;;;;;15.43;11.50;;;14.30;99.90;;;;;;5129057;27;20406;-68
2023/05/21 00:46:12;;;;;;;13.43;11.03;;;14.30;99.90;;;;;;5093629;28;20438;-68
2023/05/21 00:48:38;;;;;;;13.63;10.47;;;14.30;99.90;;;;;;5128765;28;20786;-68
2023/05/21 00:51:05;;;;;;;13.77;10.70;;;14.30;99.90;;;;;;5128733;28;20774;-68
2023/05/21 00:53:33;;;;;;;12.77;10.90;;;14.30;99.90;;;;;;5128621;28;20484;-68
2023/05/21 00:55:59;;;;;;;15.70;11.27;;;14.20;99.90;;;;;;5129324;27;20469;-67
2023/05/21 00:58:25;;;;;;;15.20;12.03;;;14.10;99.90;;;;;;5132596;27;20794;-69
2023/05/21 01:00:54;;;;;;;15.60;11.27;;;14.10;99.90;;;;;;5132779;27;20418;-69
2023/05/21 01:03:21;;;;;;;26.17;11.67;;;14.10;99.90;;;;;;5114001;27;20713;-68
2023/05/21 01:05:58;;;;;;;19.13;12.17;;;14.10;99.90;;;;;;5132503;27;20471;-68
2023/05/21 01:08:26;;;;;;;16.00;10.67;;;14.10;99.90;;;;;;5132691;27;20533;-68
2023/05/21 01:10:52;;;;;;;13.60;11.10;;;14.00;99.90;;;;;;5132516;27;20492;-68
2023/05/21 01:13:21;;;;;;;14.97;10.77;;;14.00;99.90;;;;;;5132412;27;20425;-68
2023/05/21 01:15:48;;;;;;;16.80;12.00;;;14.00;99.90;;;;;;5113443;27;20477;-67
2023/05/21 01:18:14;;;;;;;12.70;11.10;;;14.00;99.90;;;;;;5113713;27;20477;-67
2023/05/21 01:20:46;;;;;;;15.10;12.37;;;14.00;99.90;;;;;;5132237;27;20422;-67
2023/05/21 01:23:19;;;;;;;14.97;12.00;;;13.80;99.90;;;;;;5132144;27;20977;-67
2023/05/21 01:25:45;;;;;;;17.27;12.30;;;13.80;99.90;;;;;;5114634;27;20419;-68
2023/05/21 01:28:11;;;;;;;12.90;11.10;;;13.80;99.90;;;;;;5132065;27;20421;-68
2023/05/21 01:30:39;;;;;;;20.60;12.53;;;13.80;99.90;;;;;;5132050;27;20442;-67
2023/05/21 01:33:28;;;;;;;19.87;11.77;;;13.80;99.90;;;;;;5131900;27;20804;-68
2023/05/21 01:36:02;;;;;;;15.10;12.10;;;13.80;99.90;;;;;;5131796;27;20470;-67
2023/05/21 01:38:38;;;;;;;15.97;12.50;;;13.80;99.90;;;;;;5131979;27;20410;-68
2023/05/21 01:41:09;;;;;;;18.50;13.13;;;13.80;99.90;;;;;;5131868;27;20430;-67
2023/05/21 01:43:38;;;;;;;14.53;11.77;;;13.80;99.90;;;;;;5132044;27;20406;-68
2023/05/21 01:46:06;;;;;;;14.60;12.60;;;13.90;99.90;;;;;;5131829;27;20538;-68
2023/05/21 01:48:33;;;;;;;17.23;13.07;;;13.80;99.90;;;;;;5131842;27;20430;-68
2023/05/21 01:51:02;;;;;;;14.10;12.43;;;13.80;99.90;;;;;;5131839;27;20518;-68
2023/05/21 01:53:28;;;;;;;17.87;12.73;;;13.70;99.90;;;;;;5131713;27;20448;-68
2023/05/21 01:55:54;;;;;;;12.93;11.53;;;13.70;99.90;;;;;;5131843;27;20980;-68
2023/05/21 01:58:20;;;;;;;16.37;11.97;;;13.70;99.90;;;;;;5131471;27;20258;-68
2023/05/21 02:00:46;;;;;;;16.03;11.47;;;13.60;99.90;;;;;;5112864;27;20476;-68
2023/05/21 02:03:13;;;;;;;16.17;13.07;;;13.70;99.90;;;;;;5131409;27;20840;-67
2023/05/21 02:05:39;;;;;;;17.00;12.13;;;13.50;99.90;;;;;;5112957;27;20743;-67
2023/05/21 02:08:07;;;;;;;17.90;14.17;;;13.40;99.90;;;;;;5111701;27;20437;-68
2023/05/21 02:10:33;;;;;;;19.67;13.43;;;13.30;99.90;;;;;;5131687;27;20429;-68
2023/05/21 02:12:59;;;;;;;15.63;13.33;;;13.30;99.90;;;;;;5131208;27;20755;-67
2023/05/21 02:15:24;;;;;;;16.83;14.00;;;13.20;99.90;;;;;;5131162;27;20461;-68
2023/05/21 02:17:50;;;;;;;16.33;13.27;;;13.30;99.90;;;;;;5131264;27;20197;-68
2023/05/21 02:20:16;;;;;;;18.53;12.87;;;13.20;99.90;;;;;;5112762;27;20681;-68
2023/05/21 02:22:47;;;;;;;18.40;13.67;;;13.10;99.90;;;;;;5131405;27;20181;-68
2023/05/21 02:25:14;;;;;;;17.87;12.43;;;13.20;99.90;;;;;;5131025;27;20430;-68
2023/05/21 02:27:41;;;;;;;17.37;13.00;;;13.20;99.90;;;;;;5130961;27;20434;-68
2023/05/21 02:30:11;;;;;;;20.00;13.70;;;13.20;99.90;;;;;;5131342;27;20407;-68
2023/05/21 02:32:38;;;;;;;18.80;12.87;;;13.20;99.90;;;;;;5131653;27;20433;-68
2023/05/21 02:35:09;;;;;;;16.53;13.33;;;13.20;99.90;;;;;;5112609;27;20488;-68
2023/05/21 02:37:36;;;;;;;22.00;13.27;;;13.20;99.90;;;;;;5131456;27;20546;-68
2023/05/21 02:40:04;;;;;;;18.17;13.83;;;13.20;99.90;;;;;;5112916;27;20853;-67
2023/05/21 02:42:30;;;;;;;17.80;14.30;;;13.20;99.90;;;;;;5131592;27;20438;-67
2023/05/21 02:44:56;;;;;;;17.17;14.80;;;13.10;99.90;;;;;;5131618;27;20965;-67
2023/05/21 02:47:22;;;;;;;19.87;13.30;;;13.20;99.90;;;;;;5131486;27;20434;-67
2023/05/21 02:49:49;;;;;;;26.53;14.30;;;13.20;99.90;;;;;;5113036;27;20309;-67
2023/05/21 02:52:19;;;;;;;19.60;14.10;;;13.20;99.90;;;;;;5131845;27;20414;-67
2023/05/21 02:54:45;;;;;;;17.50;13.60;;;13.00;99.90;;;;;;5131415;27;20444;-67
2023/05/21 02:57:11;;;;;;;21.30;14.70;;;12.90;99.90;;;;;;5131619;27;20467;-67
2023/05/21 02:59:37;;;;;;;27.60;14.77;;;13.00;99.90;;;;;;5112995;27;20990;-67
2023/05/21 03:02:02;;;;;;;18.93;13.80;;;13.00;99.90;;;;;;5131171;27;20178;-67
2023/05/21 03:04:28;;;;;;;18.00;13.90;;;13.00;99.90;;;;;;5131187;27;20642;-68
2023/05/21 03:06:55;;;;;;;24.77;14.70;;;13.00;99.90;;;;;;5130942;27;20200;-67
2023/05/21 03:09:21;;;;;;;18.00;14.60;;;13.10;99.90;;;;;;5130880;27;20616;-68
2023/05/21 03:11:47;;;;;;;18.40;13.40;;;13.00;99.90;;;;;;5112456;27;20971;-68
2023/05/21 03:14:13;;;;;;;21.60;14.03;;;13.10;99.90;;;;;;5130643;27;20459;-67
2023/05/21 03:16:40;;;;;;;20.30;13.80;;;13.00;99.90;;;;;;5130254;27;20474;-68
2023/05/21 03:19:06;;;;;;;18.73;14.50;;;12.90;99.90;;;;;;5111733;27;20177;-68
2023/05/21 03:21:32;;;;;;;17.53;14.70;;;12.90;99.90;;;;;;5130466;27;21226;-67
2023/05/21 03:23:58;;;;;;;18.43;13.80;;;12.90;99.90;;;;;;5130150;27;21267;-67
2023/05/21 03:26:28;;;;;;;25.00;14.23;;;12.90;99.90;;;;;;5130153;27;20430;-67
2023/05/21 03:28:55;;;;;;;17.30;14.43;;;12.80;99.90;;;;;;5095341;27;20421;-67
2023/05/21 03:31:21;;;;;;;20.30;15.00;;;12.70;99.90;;;;;;5129947;27;20418;-67
2023/05/21 03:33:46;;;;;;;21.67;15.87;;;12.70;99.90;;;;;;5129835;27;20503;-67
2023/05/21 03:36:12;;;;;;;19.97;15.03;;;12.70;99.90;;;;;;5129830;27;20469;-68
2023/05/21 03:38:38;;;;;;;23.30;17.00;;;12.50;99.90;;;;;;5111382;27;20215;-68
2023/05/21 03:41:05;;;;;;;22.10;16.30;;;12.50;99.90;;;;;;5129926;27;20177;-68
2023/05/21 03:43:30;;;;;;;24.60;17.60;;;12.50;99.90;;;;;;5129701;27;20258;-68
2023/05/21 03:45:56;;;;;;;19.83;14.40;;;12.60;99.90;;;;;;5111471;27;20892;-67
2023/05/21 03:48:21;;;;;;;24.00;16.80;;;12.70;99.90;;;;;;5130204;27;20191;-67
2023/05/21 03:50:47;;;;;;;18.40;13.83;;;12.70;99.90;;;;;;5130397;27;20185;-66
2023/05/21 03:53:13;;;;;;;20.53;14.70;;;12.80;99.90;;;;;;5130273;27;20212;-67
2023/05/21 03:55:39;;;;;;;19.93;14.90;;;12.80;99.90;;;;;;5130218;27;20669;-67
2023/05/21 03:58:04;;;;;;;19.90;14.70;;;12.70;99.90;;;;;;5111770;27;20411;-67
2023/05/21 04:00:31;;;;;;;20.90;14.60;;;12.80;99.90;;;;;;5130440;27;20839;-67
2023/05/21 04:02:57;;;;;;;19.93;14.90;;;12.70;99.90;;;;;;5130259;27;20185;-67
2023/05/21 04:05:23;;;;;;;20.43;15.83;;;12.70;99.90;;;;;;5130331;27;20420;-67
2023/05/21 04:07:48;;;;;;;21.63;16.30;;;12.70;99.90;;;;;;5129804;27;20440;-67
2023/05/21 04:10:14;;;;;;;20.17;15.53;;;12.70;99.90;;;;;;5129794;27;20189;-69
2023/05/21 04:12:40;;;;;;;23.97;16.30;;;12.70;99.90;;;;;;5130074;28;20263;-68
2023/05/21 04:15:06;;;;;;;21.77;15.30;;;12.80;99.90;;;;;;5129435;28;20460;-68
2023/05/21 04:17:33;;;;;;;23.10;17.23;;;12.80;99.90;;;;;;5129280;27;20201;-68
2023/05/21 04:19:58;;;;;;;23.67;15.10;;;12.80;99.90;;;;;;5129508;27;20471;-68
2023/05/21 04:22:25;;;;;;;20.87;16.57;;;12.80;99.90;;;;;;5129439;27;20789;-68
2023/05/21 04:24:52;;;;;;;17.50;15.03;;;12.80;99.90;;;;;;5111338;28;20218;-68
2023/05/21 04:27:18;;;;;;;22.60;16.40;;;12.80;99.90;;;;;;5111182;28;20441;-68
2023/05/21 04:29:43;;;;;;;18.27;14.90;;;12.90;99.90;;;;;;5111308;28;20956;-68
2023/05/21 04:32:10;;;;;;;20.80;15.50;;;12.80;99.90;;;;;;5132491;27;20180;-69
2023/05/21 04:34:36;;;;;;;23.50;16.03;;;12.80;99.90;;;;;;5133807;27;20175;-68
2023/05/21 04:37:02;;;;;;;19.33;15.27;;;12.90;99.90;;;;;;5133652;27;20446;-68
2023/05/21 04:39:30;;;;;;;22.50;15.37;;;12.90;99.90;;;;;;5133517;27;20758;-68
2023/05/21 04:41:55;;;;;;;20.00;14.97;;;13.00;99.90;;;;;;5098334;27;20199;-67
2023/05/21 04:44:22;;;;;;;22.20;15.60;;;13.00;99.90;;;;;;5133348;27;20474;-68
2023/05/21 04:46:47;;;;;;;22.40;16.60;;;13.10;99.90;;;;;;5114449;27;20310;-68
2023/05/21 04:49:14;;;;;;;27.70;16.50;;;13.10;99.90;;;;;;5133363;27;20539;-68
2023/05/21 04:51:40;;;;;;;22.70;15.80;;;13.20;99.90;;;;;;5133122;27;20191;-68
2023/05/21 04:54:06;;;;;;;22.53;16.30;;;13.20;99.90;;;;;;5132872;27;20509;-68
2023/05/21 04:56:32;;;;;;;24.07;15.47;;;13.30;99.90;;;;;;5132643;27;20458;-68
2023/05/21 04:58:57;;;;;;;18.73;13.10;;;13.40;99.90;;;;;;5133039;27;20420;-68
2023/05/21 05:01:28;;;;;;;17.43;14.67;;;13.50;99.90;;;;;;5132995;27;20180;-68
2023/05/21 05:03:54;;;;;;;19.43;15.40;;;13.50;99.90;;;;;;5132817;27;20595;-68
2023/05/21 05:06:20;;;;;;;19.00;15.20;;;13.50;99.90;;;;;;5132568;27;20802;-68
2023/05/21 05:08:45;;;;;;;23.60;16.07;;;13.50;99.90;;;;;;5114167;27;20426;-69
2023/05/21 05:11:12;;;;;;;23.53;16.07;;;13.40;99.90;;;;;;5132732;27;20980;-68
2023/05/21 05:13:40;;;;;;;22.90;16.93;;;13.60;99.90;;;;;;5114046;27;20276;-68
2023/05/21 05:16:06;;;;;;;19.87;15.93;;;13.50;99.90;;;;;;5113821;27;20469;-69
2023/05/21 05:18:32;;;;;;;21.80;16.20;;;13.50;99.90;;;;;;5132485;27;20458;-68
2023/05/21 05:20:59;;;;;;;22.50;15.60;;;13.70;99.90;;;;;;5132213;27;20415;-68
2023/05/21 05:23:25;;;;;;;21.33;16.00;;;13.70;99.90;;;;;;5132183;27;20866;-68
2023/05/21 05:25:50;;;;;;;20.30;15.27;;;13.90;99.90;;;;;;5113633;27;20745;-68
2023/05/21 05:28:16;;;;;;;19.53;15.00;;;14.00;99.90;;;;;;5132200;27;20774;-68
2023/05/21 05:30:41;;;;;;;20.97;15.60;;;14.10;99.90;;;;;;5132348;27;20212;-68
2023/05/21 05:33:07;;;;;;;21.70;16.90;;;14.20;99.90;;;;;;5132700;27;20193;-68
2023/05/21 05:35:32;;;;;;;20.37;16.30;;;14.30;99.90;;;;;;5132122;27;20221;-68
2023/05/21 05:37:59;;;;;;;20.80;16.00;;;14.40;99.90;;;;;;5113331;27;20197;-69
2023/05/21 05:40:24;;;;;;;19.87;16.27;;;14.50;99.90;;;;;;5113202;27;20195;-68
2023/05/21 05:42:51;;;;;;;19.10;15.47;;;14.60;99.90;;;;;;5130487;27;20442;-68
2023/05/21 05:45:17;;;;;;;25.70;17.20;;;14.60;99.90;;;;;;5132240;27;20178;-68
2023/05/21 05:47:43;;;;;;;20.77;17.00;;;14.70;99.90;;;;;;5131783;27;20457;-67
2023/05/21 05:50:09;;;;;;;20.53;16.43;;;14.70;99.90;;;;;;5132389;27;20915;-67
2023/05/21 05:52:35;;;;;;;22.40;16.60;;;14.80;99.90;;;;;;5131800;27;20588;-67
2023/05/21 05:55:00;;;;;;;18.73;15.70;;;14.90;99.90;;;;;;5112971;27;20993;-68
2023/05/21 05:57:26;;;;;;;20.80;16.43;;;14.90;99.90;;;;;;5113012;27;20457;-68
2023/05/21 05:59:51;;;;;;;24.53;16.20;;;15.00;99.90;;;;;;5131600;27;20185;-68
2023/05/21 06:02:17;;;;;;;24.13;17.10;;;15.10;99.90;;;;;;5113117;27;20185;-68
2023/05/21 06:04:43;;;;;;;19.57;15.03;;;15.20;99.90;;;;;;5131414;27;20170;-68
2023/05/21 06:07:08;;;;;;;19.77;16.80;;;15.30;99.90;;;;;;5131213;27;20203;-68
2023/05/21 06:09:34;;;;;;;21.93;17.63;;;15.30;99.90;;;;;;5131885;27;20326;-69
2023/05/21 06:12:00;;;;;;;23.07;17.27;;;15.40;99.90;;;;;;5131415;27;20220;-68
2023/05/21 06:14:25;;;;;;;22.50;16.93;;;15.50;99.90;;;;;;5131494;27;20320;-68
2023/05/21 06:16:51;;;;;;;20.47;16.80;;;15.60;99.90;;;;;;5131170;27;20725;-69
2023/05/21 06:19:16;;;;;;;22.17;15.43;;;15.60;99.90;;;;;;5112427;27;20618;-68
2023/05/21 06:21:42;;;;;;;20.97;17.67;;;15.60;99.90;;;;;;5131117;27;20216;-68
2023/05/21 06:24:08;;;;;;;24.27;17.90;;;15.70;99.90;;;;;;5131248;27;20651;-68
2023/05/21 06:26:33;;;;;;;23.70;17.27;;;15.70;99.90;;;;;;5131168;27;20201;-68
2023/05/21 06:28:59;;;;;;;20.77;17.80;;;15.70;99.90;;;;;;5131121;27;20205;-68
2023/05/21 06:31:24;;;;;;;23.63;17.13;;;15.80;99.90;;;;;;5131035;27;20190;-68
2023/05/21 06:33:50;;;;;;;24.97;16.93;;;16.00;99.90;;;;;;5130944;27;20185;-68
2023/05/21 06:36:16;;;;;;;26.90;18.23;;;16.10;99.90;;;;;;5112127;27;20758;-68
2023/05/21 06:38:41;;;;;;;26.10;18.50;;;16.20;99.90;;;;;;5130829;27;20253;-68
2023/05/21 06:41:07;;;;;;;27.53;18.20;;;16.30;99.90;;;;;;5130688;27;20427;-68
2023/05/21 06:43:33;;;;;;;21.73;17.70;;;16.40;99.90;;;;;;5130846;27;20175;-67
2023/05/21 06:46:00;;;;;;;24.60;18.23;;;16.50;99.90;;;;;;5130519;27;21097;-69
2023/05/21 06:48:26;;;;;;;23.03;17.93;;;16.60;99.90;;;;;;5130981;27;20270;-67
2023/05/21 06:50:51;;;;;;;24.67;18.07;;;16.60;99.90;;;;;;5111814;27;20808;-67
2023/05/21 06:53:17;;;;;;;20.90;17.87;;;16.80;99.90;;;;;;5130927;27;20285;-67
2023/05/21 06:55:46;;;;;;;22.07;17.20;;;16.80;99.90;;;;;;5130020;27;20202;-68
2023/05/21 06:58:12;;;;;;;21.80;17.93;;;17.00;99.90;;;;;;5130683;27;20996;-69
2023/05/21 07:00:37;;;;;;;21.83;17.17;;;17.00;99.90;;;;;;5094745;27;20424;-68
2023/05/21 07:03:03;;;;;;;20.63;17.37;;;17.20;99.90;;;;;;5130325;27;20267;-68
2023/05/21 07:05:29;;;;;;;22.93;18.73;;;17.30;99.90;;;;;;5130365;27;20675;-68
2023/05/21 07:07:55;;;;;;;20.23;16.43;;;17.50;99.90;;;;;;5130017;27;20266;-68
2023/05/21 07:10:20;;;;;;;22.60;15.50;;;17.60;99.90;;;;;;5130189;27;20183;-68
2023/05/21 07:12:46;;;;;;;21.73;15.83;;;17.70;99.90;;;;;;5130295;27;20414;-68
2023/05/21 07:15:12;;;;;;;20.57;17.07;;;17.80;99.90;;;;;;5130113;27;20298;-68
2023/05/21 07:17:37;;;;;;;20.00;16.40;;;17.90;99.90;;;;;;5094386;27;20210;-68
2023/05/21 07:20:10;;;;;;;19.00;16.17;;;18.00;99.90;;;;;;5130112;27;20583;-68
2023/05/21 07:22:38;;;;;;;20.00;16.10;;;18.10;99.90;;;;;;5130338;27;20181;-68
2023/05/21 07:25:04;;;;;;;31.10;15.90;;;18.20;99.90;;;;;;5130353;27;20423;-68
2023/05/21 07:27:30;;;;;;;21.07;16.33;;;18.20;99.90;;;;;;5130559;27;20447;-68
2023/05/21 07:29:55;;;;;;;21.93;17.47;;;18.30;99.90;;;;;;5130526;27;20425;-68
2023/05/21 07:32:21;;;;;;;23.20;16.43;;;18.30;99.90;;;;;;5110309;27;20279;-68
2023/05/21 07:34:46;;;;;;;20.30;17.30;;;18.40;99.90;;;;;;5128130;27;20271;-69
2023/05/21 07:37:12;;;;;;;21.20;16.97;;;18.50;99.90;;;;;;5128303;27;20202;-67
2023/05/21 07:39:38;;;;;;;19.30;16.10;;;18.60;99.90;;;;;;5109526;27;20227;-68
2023/05/21 07:42:04;;;;;;;18.33;15.93;;;18.60;99.90;;;;;;5128977;27;20800;-69
2023/05/21 07:44:30;;;;;;;19.03;14.80;;;18.60;99.90;;;;;;5094821;27;20619;-76
2023/05/21 07:46:56;;;;;;;16.83;14.70;;;18.80;99.90;;;;;;5111635;27;20222;-76
2023/05/21 07:49:22;;;;;;;17.67;14.63;;;18.90;99.90;;;;;;5129536;27;20424;-75
2023/05/21 07:51:48;;;;;;;20.00;14.97;;;19.00;99.90;;;;;;5129342;27;20953;-77
2023/05/21 07:54:14;;;;;;;24.10;15.63;;;19.10;99.90;;;;;;5110654;27;20184;-76
2023/05/21 07:56:39;;;;;;;20.50;14.73;;;19.20;99.90;;;;;;5109658;27;20474;-75
2023/05/21 07:59:05;;;;;;;18.70;15.17;;;19.30;99.90;;;;;;5128697;27;20177;-76
2023/05/21 08:01:31;;;;;;;16.00;14.33;;;19.30;99.90;;;;;;5110172;27;20599;-75
2023/05/21 08:04:00;;;;;;;18.83;14.60;;;19.20;99.90;;;;;;5128209;27;20418;-75
2023/05/21 08:06:26;;;;;;;16.03;14.37;;;19.30;99.90;;;;;;5127820;27;20499;-76
2023/05/21 08:08:53;;;;;;;18.97;14.90;;;19.50;99.90;;;;;;5093552;27;20852;-77
2023/05/21 08:11:18;;;;;;;19.83;14.50;;;19.50;99.90;;;;;;5110357;28;20184;-76
2023/05/21 08:13:44;;;;;;;21.87;15.33;;;19.70;99.90;;;;;;5128799;27;21278;-76
2023/05/21 08:16:10;;;;;;;17.13;13.87;;;19.70;99.90;;;;;;5109770;28;20574;-76
2023/05/21 08:18:35;;;;;;;17.67;14.83;;;19.80;99.90;;;;;;5128283;27;20181;-76
2023/05/21 08:21:01;;;;;;;20.43;14.63;;;19.90;99.90;;;;;;5128034;27;20184;-77
2023/05/21 08:23:27;;;;;;;22.23;14.83;;;20.00;99.90;;;;;;5127852;27;20181;-76
2023/05/21 08:25:52;;;;;;;19.43;15.03;;;20.00;99.90;;;;;;5109248;27;20181;-76
2023/05/21 08:28:18;;;;;;;16.43;13.60;;;20.10;99.90;;;;;;5128127;28;20212;-76
2023/05/21 08:30:44;;;;;;;16.63;13.97;;;20.20;99.90;;;;;;5109575;28;20184;-76
2023/05/21 08:33:09;;;;;;;25.30;13.60;;;20.40;99.90;;;;;;5109097;28;20947;-76
2023/05/21 08:35:35;;;;;;;16.83;14.10;;;20.40;99.90;;;;;;5127925;28;20239;-76
2023/05/21 08:38:00;;;;;;;15.30;13.43;;;20.50;99.90;;;;;;5128557;28;20705;-76
2023/05/21 08:40:26;;;;;;;20.90;15.30;;;20.70;99.90;;;;;;5128636;28;20183;-77
2023/05/21 08:42:52;;;;;;;16.20;13.60;;;20.70;99.90;;;;;;5109504;28;20564;-75
2023/05/21 08:45:22;;;;;;;18.90;14.27;;;20.70;99.90;;;;;;5109770;28;20264;-75
2023/05/21 08:47:56;;;;;;;14.43;12.90;;;20.70;99.90;;;;;;5129585;27;20315;-78
2023/05/21 08:50:25;;;;;;;20.63;13.27;;;20.80;99.90;;;;;;5111473;28;20539;-76
2023/05/21 08:52:51;;;;;;;19.40;14.87;;;20.90;99.90;;;;;;5129315;27;20467;-77
2023/05/21 08:55:17;;;;;;;15.67;13.30;;;20.90;99.90;;;;;;5129072;28;20461;-77
2023/05/21 08:57:43;;;;;;;20.20;14.90;;;21.00;99.90;;;;;;5129165;27;20440;-78
2023/05/21 09:00:10;;;;;;;19.13;13.63;;;21.00;99.90;;;;;;5129167;27;20203;-77
2023/05/21 09:02:39;;;;;;;20.87;14.17;;;21.10;99.90;;;;;;5110375;28;20491;-77
2023/05/21 09:05:08;;;;;;;14.27;12.77;;;21.00;99.90;;;;;;5129228;28;20903;-77
2023/05/21 09:07:38;;;;;;;14.37;12.83;;;21.10;99.90;;;;;;5129523;27;20543;-78
2023/05/21 09:10:09;;;;;;;13.77;12.37;;;21.20;99.90;;;;;;5111855;28;20449;-77
2023/05/21 09:12:35;;;;;;;16.83;13.00;;;21.20;99.90;;;;;;5129161;28;20407;-77
2023/05/21 09:15:02;;;;;;;16.00;12.97;;;21.30;99.90;;;;;;5093024;28;20418;-78
2023/05/21 09:17:27;;;;;;;13.37;11.97;;;21.40;99.90;;;;;;5130282;27;20193;-77
2023/05/21 09:20:16;;;;;;;16.20;12.97;;;21.30;99.90;;;;;;5132596;27;21169;-77
2023/05/21 09:22:42;;;;;;;15.43;13.60;;;21.20;99.90;;;;;;5113413;27;20184;-77
2023/05/21 09:25:10;;;;;;;22.50;13.23;;;21.20;99.90;;;;;;5130981;27;20837;-75
2023/05/21 09:27:36;;;;;;;15.37;13.30;;;21.10;99.90;;;;;;5113132;27;20441;-76
2023/05/21 09:30:03;;;;;;;16.00;13.30;;;21.10;99.90;;;;;;5113208;27;20418;-75
2023/05/21 09:32:29;;;;;;;14.87;12.90;;;21.20;99.90;;;;;;5130755;27;20418;-75
2023/05/21 09:34:55;;;;;;;20.17;13.17;;;21.20;99.90;;;;;;5130538;27;20414;-76
2023/05/21 09:37:21;;;;;;;16.33;12.80;;;21.20;99.90;;;;;;5130548;27;20212;-76
2023/05/21 09:39:47;;;;;;;14.10;12.50;;;21.20;99.90;;;;;;5111713;27;20672;-75
2023/05/21 09:42:13;;;;;;;17.97;13.40;;;21.30;99.90;;;;;;5130389;27;20430;-76
2023/05/21 09:44:42;;;;;;;15.70;13.00;;;21.40;99.90;;;;;;5113515;27;20504;-75
2023/05/21 09:47:10;;;;;;;17.03;13.30;;;21.40;99.90;;;;;;5130602;27;20824;-76
2023/05/21 09:49:36;;;;;;;14.40;12.90;;;21.50;99.90;;;;;;5111471;27;20508;-76
2023/05/21 09:52:03;;;;;;;16.57;14.50;;;21.60;99.90;;;;;;5130515;27;20549;-75
2023/05/21 09:54:33;;;;;;;17.57;13.93;;;21.60;99.90;;;;;;5111995;27;20439;-75
2023/05/21 09:57:02;;;;;;;18.00;12.87;;;21.70;99.90;;;;;;5129850;27;20484;-75
2023/05/21 09:59:40;;;;;;;16.53;12.10;;;21.80;99.90;;;;;;5130308;27;20882;-75
2023/05/21 10:02:36;;;;;;;16.60;13.43;;;21.90;99.90;;;;;;5111259;27;21330;-75
2023/05/21 10:05:04;;;;;;;16.83;14.10;;;21.90;99.90;;;;;;5108480;27;20465;-75
2023/05/21 10:07:30;;;;;;;18.50;12.43;;;22.00;99.90;;;;;;5111633;27;20463;-75
2023/05/21 10:09:59;;;;;;;17.10;13.50;;;22.10;99.90;;;;;;5129905;27;20470;-75
2023/05/21 10:12:26;;;;;;;15.60;13.40;;;22.10;99.90;;;;;;5111420;27;20205;-76
2023/05/21 10:15:00;;;;;;;14.60;13.10;;;22.20;99.90;;;;;;5129906;27;20530;-76
2023/05/21 10:17:27;;;;;;;16.40;12.83;;;22.10;99.90;;;;;;5111206;27;20438;-74
2023/05/21 10:19:55;;;;;;;14.43;12.93;;;22.40;99.90;;;;;;5111712;27;20411;-76
2023/05/21 10:22:24;;;;;;;13.90;12.37;;;22.50;99.90;;;;;;5111481;27;20424;-76
2023/05/21 10:24:51;;;;;;;14.60;12.43;;;22.60;99.90;;;;;;5129520;27;20527;-76
2023/05/21 10:27:17;;;;;;;19.63;13.43;;;22.80;99.90;;;;;;5129646;27;20535;-76
2023/05/21 10:29:44;;;;;;;19.93;13.33;;;22.80;99.90;;;;;;5110231;27;21145;-77
2023/05/21 10:32:11;;;;;;;15.23;11.60;;;22.80;99.90;;;;;;5111220;27;20433;-76
2023/05/21 10:34:37;;;;;;;20.00;12.80;;;22.90;99.90;;;;;;5110973;27;20431;-76
2023/05/21 10:37:04;;;;;;;14.20;12.77;;;22.80;99.90;;;;;;5129540;27;20530;-76
2023/05/21 10:39:32;;;;;;;14.10;12.00;;;23.00;99.90;;;;;;5110846;27;20191;-76
2023/05/21 10:42:23;;;;;;;16.33;12.80;;;23.10;99.90;;;;;;5129391;27;20909;-76
2023/05/21 10:44:58;;;;;;;15.43;12.83;;;23.00;99.90;;;;;;5110679;27;20423;-76
2023/05/21 10:47:49;;;;;;;13.60;11.40;;;23.10;99.90;;;;;;5129636;27;20515;-76
2023/05/21 10:50:43;;;;;;;12.40;11.10;;;23.20;99.90;;;;;;5129263;27;20413;-75
2023/05/21 10:53:56;;;;;;;15.13;11.53;;;23.40;99.90;;;;;;5129650;27;20415;-73
2023/05/21 10:56:29;;;;;;;15.80;12.20;;;23.40;99.90;;;;;;5129464;27;20470;-75
2023/05/21 10:59:10;;;;;;;16.43;12.60;;;23.40;99.90;;;;;;5129576;27;20422;-73
2023/05/21 11:01:39;;;;;;;13.20;11.80;;;23.40;99.90;;;;;;5110812;27;20433;-74
2023/05/21 11:04:05;;;;;;;17.60;12.47;;;23.40;99.90;;;;;;5129374;27;20429;-75
2023/05/21 11:06:30;;;;;;;12.80;11.47;;;23.50;99.90;;;;;;5110666;27;20523;-74
2023/05/21 11:09:00;;;;;;;15.53;10.60;;;23.60;99.90;;;;;;5129285;27;20565;-73
2023/05/21 11:11:48;;;;;;;12.00;10.70;;;23.60;99.90;;;;;;5129695;27;20181;-74
2023/05/21 11:14:41;;;;;;;12.17;10.97;;;23.80;99.90;;;;;;5111703;27;20450;-75
2023/05/21 11:17:37;;;;;;;20.33;11.00;;;23.60;99.90;;;;;;5110407;27;20474;-75
2023/05/21 11:20:13;;;;;;;12.17;10.53;;;23.70;99.90;;;;;;5110500;27;20454;-75
2023/05/21 11:22:38;;;;;;;13.17;9.33;;;23.80;99.90;;;;;;5093451;27;20507;-75
2023/05/21 11:25:05;;;;;;;11.57;9.30;;;23.70;99.90;;;;;;5111017;27;20518;-74
2023/05/21 11:27:39;;;;;;;17.23;9.93;;;23.90;99.90;;;;;;5129567;27;20578;-74
2023/05/21 11:30:18;;;;;;;9.87;8.97;;;23.80;99.90;;;;;;5128714;27;20510;-75
2023/05/21 11:33:12;;;;;;;11.50;10.00;;;23.80;99.90;;;;;;5128520;27;20426;-75
2023/05/21 11:36:02;;;;;;;10.97;8.90;;;23.70;99.90;;;;;;5130119;27;20463;-75
2023/05/21 11:38:30;;;;;;;9.50;8.50;;;23.70;99.90;;;;;;5095561;27;20903;-74
2023/05/21 11:41:01;;;;;;;12.00;9.20;;;23.90;99.90;;;;;;5128824;27;20478;-75
2023/05/21 11:43:27;;;;;;;9.87;8.87;;;23.80;99.90;;;;;;5112307;27;20954;-74
2023/05/21 11:45:54;;;;;;;15.80;9.87;;;23.90;99.90;;;;;;5129873;27;20515;-75
2023/05/21 11:48:31;;;;;;;10.57;9.07;;;23.90;99.90;;;;;;5111950;27;20183;-75
2023/05/21 11:50:56;;;;;;;11.10;8.77;;;24.00;99.90;;;;;;5113917;27;20423;-75
2023/05/21 11:53:22;;;;;;;11.63;8.80;;;24.10;99.90;;;;;;5096816;27;20435;-75
2023/05/21 11:55:49;;;;;;;9.30;8.50;;;24.30;99.90;;;;;;5113225;27;20222;-74
2023/05/21 11:58:18;;;;;;;9.70;8.53;;;24.30;99.90;;;;;;5114111;27;20180;-75
2023/05/21 12:00:43;;;;;;;23.07;10.10;;;24.30;99.90;;;;;;5114135;27;20436;-75
2023/05/21 12:03:13;;;;;;;8.70;7.80;;;24.20;99.90;;;;;;5113815;27;20423;-75
2023/05/21 12:05:48;;;;;;;10.10;9.07;;;24.30;99.90;;;;;;5113988;27;20215;-75
2023/05/21 12:08:26;;;;;;;12.07;9.17;;;24.20;99.90;;;;;;5131618;27;20475;-75
2023/05/21 12:10:59;;;;;;;10.23;8.43;;;24.20;99.90;;;;;;5113838;28;20890;-75
2023/05/21 12:13:25;;;;;;;9.27;8.37;;;24.30;99.90;;;;;;5130443;27;20979;-75
2023/05/21 12:15:52;;;;;;;9.87;8.03;;;24.10;99.90;;;;;;5130341;27;20524;-75
2023/05/21 12:18:19;;;;;;;12.30;9.40;;;24.10;99.90;;;;;;5130472;27;20421;-75
2023/05/21 12:20:45;;;;;;;12.03;7.87;;;24.10;99.90;;;;;;5129932;28;20413;-75
2023/05/21 12:23:22;;;;;;;11.23;9.00;;;24.10;99.90;;;;;;5094726;28;20797;-75
2023/05/21 12:25:48;;;;;;;8.97;7.97;;;24.00;99.90;;;;;;5111579;27;20200;-75
2023/05/21 12:28:14;;;;;;;9.07;8.17;;;24.00;99.90;;;;;;5129683;28;20422;-75
2023/05/21 12:30:40;;;;;;;8.63;7.57;;;24.00;99.90;;;;;;5130190;27;20874;-75
2023/05/21 12:33:06;;;;;;;10.37;8.37;;;24.00;99.90;;;;;;5129389;28;20425;-74